Ozark Regional Airport
KBPK : now visible

Airfield :











YOU CAN JOIN US ON...

 
LOGIN :

Register | Disclaimer

   EN    FR    IT 

 









Legend :    VFR   Marginal VFR   IFR   Intensive IFR   Very Intensive IFR
Visi :
Ceiling :
>= 8 km
>= 3000ft
5 to 8 km
1000 to 3000 ft
1500m to 5 km
500 to 1000 ft
800 to 1500m
200 to 500 ft
< 800m
< 200 ft
Symbols :   Thunderstorms  Fog  Heavy snow  Heavy precipitations  Wind > 20 kt






- Airport Elevation : 928 ft


KBPK - Ozark Regional

CURRENT METAR :
  • 290053Z AUTO 00000KT 10SM CLR 13/08 A3002 RMK AO2 SLP163 T01280083

EXPIRED METARs :
  • 282353Z AUTO 00000KT 10SM FEW090 15/07 A3001 RMK AO2 SLP157 T01500072 10211 20150 53005
  • 282253Z AUTO VRB04KT 10SM FEW060 BKN090 19/07 A2999 RMK AO2 SLP153 T01890067

TAF KBPK
Valid from the 29 at 00:00 until the 30 at 00:00 UTC


282320Z 2900/2924 VRB06KT P6SM SCT090 BKN250
FM291800 31009KT P6SM FEW200
FM292300 VRB06KT P6SM FEW150
KZME FIR / North America



MET'MAP, your aeronautical weather chart ! - Copyright ORBIFLY December 2007 - Disclaimer

ORBIFLY MET'MAP TEAM :

Programming & Development : Alexandra Zaïnal
Concept & original design : Baudouin d'Aumeries
Assistance for programming : Marc-Olivier Méhu
Technical & hardware support : Manuel Goepfert

Contact : metmap@orbifly.com




SOURCES & CREDITS :

   NOAA       Earth
Advisory